Time;durP1;ratioP1;P1;durP2;ratioP2;P2;SDS_P1;SDS_P2;PMS_P1;PMS_P2;Temp;Humidity;BMP_temperature;BMP_pressure;BME280_temperature;BME280_humidity;BME280_pressure;Samples;Min_cycle;Max_cycle;Signal;HPM_P1;HPM_P2
2021/04/27 00:00:29;;;;;;;3.37;2.13;;;3.50;99.90;;;;;;5075712;28;20202;-55
2021/04/27 00:02:56;;;;;;;3.37;2.17;;;3.40;99.90;;;;;;5075448;28;20234;-53
2021/04/27 00:05:23;;;;;;;2.77;1.90;;;3.40;99.90;;;;;;5075581;28;20580;-56
2021/04/27 00:07:50;;;;;;;3.17;2.10;;;3.40;99.90;;;;;;5075027;28;20630;-54
2021/04/27 00:10:20;;;;;;;5.60;2.27;;;3.30;99.90;;;;;;5075192;28;20197;-53
2021/04/27 00:12:47;;;;;;;2.60;2.00;;;3.30;99.90;;;;;;5074794;28;20729;-51
2021/04/27 00:15:18;;;;;;;4.53;2.20;;;3.30;99.90;;;;;;5075070;28;20320;-57
2021/04/27 00:17:46;;;;;;;2.57;1.80;;;3.30;99.90;;;;;;5074954;28;20680;-57
2021/04/27 00:20:14;;;;;;;2.57;1.93;;;3.20;99.90;;;;;;5075309;28;20213;-55
2021/04/27 00:22:41;;;;;;;5.50;1.90;;;3.30;99.90;;;;;;5075310;28;20208;-56
2021/04/27 00:25:09;;;;;;;4.47;2.00;;;3.20;99.90;;;;;;5075189;28;20291;-55
2021/04/27 00:27:36;;;;;;;2.73;1.93;;;3.20;99.90;;;;;;5074971;28;20224;-54
2021/04/27 00:30:04;;;;;;;2.13;1.73;;;3.20;99.90;;;;;;5074820;28;20293;-55
2021/04/27 00:32:31;;;;;;;4.10;1.97;;;3.20;99.90;;;;;;5074624;28;21101;-55
2021/04/27 00:34:59;;;;;;;2.73;1.90;;;3.10;99.90;;;;;;5074979;28;20260;-55
2021/04/27 00:37:26;;;;;;;3.00;1.97;;;3.00;99.90;;;;;;5074916;28;20287;-56
2021/04/27 00:39:53;;;;;;;3.03;2.10;;;3.10;99.90;;;;;;5074541;28;20663;-55
2021/04/27 00:42:28;;;;;;;3.30;1.87;;;3.00;99.90;;;;;;5074706;28;20209;-55
2021/04/27 00:44:55;;;;;;;2.20;2.00;;;3.00;99.90;;;;;;5064718;28;20795;-57
2021/04/27 00:47:21;;;;;;;3.47;1.80;;;2.90;99.90;;;;;;5054221;28;20608;-53
2021/04/27 00:49:48;;;;;;;3.03;1.90;;;3.00;99.90;;;;;;5054042;28;20198;-53
2021/04/27 00:52:16;;;;;;;2.63;1.90;;;2.90;99.90;;;;;;5054610;28;20300;-51
2021/04/27 00:54:43;;;;;;;2.43;1.87;;;3.00;99.90;;;;;;5054589;28;20629;-56
2021/04/27 00:57:10;;;;;;;2.17;1.97;;;2.90;99.90;;;;;;5054321;28;20619;-55
2021/04/27 00:59:37;;;;;;;2.50;1.80;;;2.80;99.90;;;;;;5054004;28;20217;-56
2021/04/27 01:02:04;;;;;;;3.50;2.13;;;2.80;99.90;;;;;;5054342;28;20220;-55
2021/04/27 01:04:31;;;;;;;3.23;2.03;;;2.70;99.90;;;;;;5054025;28;20708;-55
2021/04/27 01:06:58;;;;;;;2.37;1.80;;;2.70;99.90;;;;;;5054023;28;20290;-55
2021/04/27 01:09:30;;;;;;;3.17;1.83;;;2.70;99.90;;;;;;5053981;28;20312;-54
2021/04/27 01:12:02;;;;;;;3.57;1.90;;;2.70;99.90;;;;;;5053880;28;20726;-55
2021/04/27 01:14:33;;;;;;;5.50;1.90;;;2.70;99.90;;;;;;5053839;28;20335;-55
2021/04/27 01:17:03;;;;;;;4.80;2.03;;;2.60;99.90;;;;;;5054110;28;20222;-55
2021/04/27 01:19:50;;;;;;;3.80;1.93;;;2.50;99.90;;;;;;5054294;28;20189;-54
2021/04/27 01:22:26;;;;;;;3.07;2.10;;;2.60;99.90;;;;;;5053985;28;20297;-55
2021/04/27 01:24:55;;;;;;;2.87;1.90;;;2.50;99.90;;;;;;5053687;28;20295;-54
2021/04/27 01:27:24;;;;;;;2.00;1.80;;;2.40;99.90;;;;;;5053390;28;20763;-55
2021/04/27 01:29:52;;;;;;;3.30;2.27;;;2.50;99.90;;;;;;5053893;28;20270;-55
2021/04/27 01:32:20;;;;;;;2.17;1.80;;;2.50;99.90;;;;;;5053342;28;20729;-54
2021/04/27 01:34:48;;;;;;;3.03;2.00;;;2.40;99.90;;;;;;5053381;28;20652;-55
2021/04/27 01:37:15;;;;;;;2.70;2.20;;;2.50;99.90;;;;;;5053423;28;20710;-52
2021/04/27 01:39:43;;;;;;;3.23;2.13;;;2.50;99.90;;;;;;5059364;28;20292;-52
2021/04/27 01:42:10;;;;;;;3.20;2.43;;;2.50;99.90;;;;;;5061024;28;20730;-53
2021/04/27 01:44:41;;;;;;;2.57;2.37;;;2.50;99.90;;;;;;5064236;28;20705;-54
2021/04/27 01:47:09;;;;;;;4.27;1.90;;;2.50;99.90;;;;;;5073435;28;20195;-55
2021/04/27 01:49:37;;;;;;;2.33;1.90;;;2.50;99.90;;;;;;5073397;28;20285;-55
2021/04/27 01:52:05;;;;;;;2.57;2.07;;;2.40;99.90;;;;;;5073409;28;20209;-56
2021/04/27 01:54:33;;;;;;;3.67;2.20;;;2.40;99.90;;;;;;5073427;28;20243;-55
2021/04/27 01:57:00;;;;;;;3.13;2.27;;;2.30;99.90;;;;;;5073195;28;20311;-56
2021/04/27 01:59:27;;;;;;;2.90;2.13;;;2.30;99.90;;;;;;5073327;28;20296;-55
2021/04/27 02:01:54;;;;;;;4.70;2.10;;;2.20;99.90;;;;;;5073326;28;20291;-55
2021/04/27 02:04:22;;;;;;;3.60;2.07;;;2.20;99.90;;;;;;5073125;28;20199;-56
2021/04/27 02:06:50;;;;;;;3.00;2.10;;;2.10;99.90;;;;;;5073194;28;20210;-56
2021/04/27 02:09:17;;;;;;;2.13;1.93;;;2.10;99.90;;;;;;5073149;28;20218;-56
2021/04/27 02:11:45;;;;;;;2.30;2.10;;;2.20;99.90;;;;;;5073125;28;20209;-55
2021/04/27 02:14:14;;;;;;;2.70;2.27;;;2.20;99.90;;;;;;5072937;28;20229;-55
2021/04/27 02:16:45;;;;;;;3.67;2.33;;;2.20;99.90;;;;;;5073086;28;20192;-56
2021/04/27 02:19:14;;;;;;;3.37;2.53;;;2.10;99.90;;;;;;5072952;28;20185;-57
2021/04/27 02:21:43;;;;;;;4.70;2.40;;;2.20;99.90;;;;;;5072882;28;20204;-55
2021/04/27 02:24:10;;;;;;;3.23;2.40;;;2.20;99.90;;;;;;5072847;28;20296;-55
2021/04/27 02:26:38;;;;;;;3.43;2.23;;;2.30;99.90;;;;;;5072669;28;20211;-54
2021/04/27 02:29:06;;;;;;;2.60;2.30;;;2.20;99.90;;;;;;5072765;28;20219;-55
2021/04/27 02:31:33;;;;;;;3.00;2.23;;;2.10;99.90;;;;;;5072696;28;20213;-54
2021/04/27 02:34:00;;;;;;;2.67;2.43;;;2.00;99.90;;;;;;5073061;28;20200;-56
2021/04/27 02:36:29;;;;;;;2.60;2.10;;;2.10;99.90;;;;;;5072675;28;20312;-55
2021/04/27 02:38:55;;;;;;;2.83;2.23;;;2.00;99.90;;;;;;5072845;28;20207;-57
2021/04/27 02:41:30;;;;;;;3.90;2.47;;;1.90;99.90;;;;;;5072667;28;20235;-58
2021/04/27 02:43:57;;;;;;;3.30;2.07;;;2.00;99.90;;;;;;5070451;28;20201;-56
2021/04/27 02:46:24;;;;;;;3.77;2.30;;;2.00;99.90;;;;;;5052755;28;20330;-57
2021/04/27 02:48:51;;;;;;;4.60;2.60;;;1.90;99.90;;;;;;5052499;28;20232;-54
2021/04/27 02:51:18;;;;;;;3.90;2.40;;;1.90;99.90;;;;;;5052367;28;20290;-57
2021/04/27 02:53:46;;;;;;;2.50;2.30;;;2.00;99.90;;;;;;5052780;28;20201;-55
2021/04/27 02:56:13;;;;;;;3.83;2.37;;;1.90;99.90;;;;;;5052394;28;20197;-56
2021/04/27 02:58:39;;;;;;;3.13;2.83;;;1.90;99.90;;;;;;5052616;28;20193;-55
2021/04/27 03:01:07;;;;;;;3.63;2.80;;;1.90;99.90;;;;;;5052604;28;20558;-56
2021/04/27 03:03:34;;;;;;;4.07;2.50;;;2.00;99.90;;;;;;5052334;28;20237;-55
2021/04/27 03:06:01;;;;;;;3.07;2.40;;;1.80;99.90;;;;;;5052523;28;20643;-54
2021/04/27 03:08:27;;;;;;;2.73;2.00;;;1.90;99.90;;;;;;5052386;28;20217;-56
2021/04/27 03:10:55;;;;;;;4.43;2.27;;;1.90;99.90;;;;;;5052438;28;20205;-53
2021/04/27 03:13:22;;;;;;;3.50;2.60;;;1.80;99.90;;;;;;5055885;28;20292;-56
2021/04/27 03:15:49;;;;;;;2.40;2.13;;;1.70;99.90;;;;;;5056203;28;20255;-55
2021/04/27 03:18:16;;;;;;;4.63;2.80;;;1.70;99.90;;;;;;5056263;28;20199;-57
2021/04/27 03:20:43;;;;;;;4.23;2.60;;;1.70;99.90;;;;;;5056433;28;20199;-56
2021/04/27 03:23:10;;;;;;;2.93;2.43;;;1.70;99.90;;;;;;5056458;28;20228;-55
2021/04/27 03:25:37;;;;;;;3.93;2.97;;;1.70;99.90;;;;;;5056252;28;20212;-54
2021/04/27 03:28:06;;;;;;;5.73;2.73;;;1.70;99.90;;;;;;5056047;28;20217;-57
2021/04/27 03:30:33;;;;;;;3.47;2.60;;;1.60;99.90;;;;;;5056176;28;20210;-53
2021/04/27 03:32:59;;;;;;;2.83;2.63;;;1.60;99.90;;;;;;5056036;28;20201;-55
2021/04/27 03:35:26;;;;;;;4.77;2.60;;;1.60;99.90;;;;;;5056078;28;20294;-56
2021/04/27 03:37:54;;;;;;;5.00;2.83;;;1.50;99.90;;;;;;5056068;28;20204;-55
2021/04/27 03:40:21;;;;;;;5.27;2.60;;;1.50;99.90;;;;;;5055730;28;20205;-55
2021/04/27 03:42:47;;;;;;;4.77;2.80;;;1.50;99.90;;;;;;5055826;28;20294;-56
2021/04/27 03:45:18;;;;;;;4.43;3.03;;;1.50;99.90;;;;;;5068326;28;20205;-57
2021/04/27 03:47:45;;;;;;;4.20;2.90;;;1.50;99.90;;;;;;5075691;28;20185;-55
2021/04/27 03:50:16;;;;;;;4.23;2.90;;;1.60;99.90;;;;;;5075471;28;20577;-56
2021/04/27 03:52:42;;;;;;;5.43;2.90;;;1.60;99.90;;;;;;5075768;28;20207;-54
2021/04/27 03:55:10;;;;;;;3.93;2.80;;;1.50;99.90;;;;;;5075680;28;20214;-56
2021/04/27 03:57:37;;;;;;;4.53;2.80;;;1.50;99.90;;;;;;5075273;28;20208;-54
2021/04/27 04:00:06;;;;;;;4.17;2.53;;;1.50;99.90;;;;;;5075666;28;20866;-56
2021/04/27 04:02:34;;;;;;;5.47;2.90;;;1.60;99.90;;;;;;5075437;28;20216;-54
2021/04/27 04:05:01;;;;;;;3.90;3.00;;;1.50;99.90;;;;;;5075575;28;20246;-52
2021/04/27 04:07:28;;;;;;;3.77;3.20;;;1.40;99.90;;;;;;5075259;28;20553;-56
2021/04/27 04:09:55;;;;;;;3.70;3.00;;;1.50;99.90;;;;;;5075347;28;20312;-53
2021/04/27 04:12:21;;;;;;;4.73;3.00;;;1.50;99.90;;;;;;5075166;28;20203;-54
2021/04/27 04:14:48;;;;;;;4.33;3.10;;;1.60;99.90;;;;;;5075163;28;20327;-54
2021/04/27 04:17:15;;;;;;;3.47;2.83;;;1.60;99.90;;;;;;5075210;28;20199;-55
2021/04/27 04:19:42;;;;;;;5.20;3.10;;;1.80;99.90;;;;;;5075552;28;20194;-54
2021/04/27 04:22:09;;;;;;;4.80;3.07;;;1.80;99.90;;;;;;5074821;28;20212;-56
2021/04/27 04:24:36;;;;;;;3.90;3.23;;;1.70;99.90;;;;;;5073846;28;20201;-54
2021/04/27 04:27:03;;;;;;;4.50;3.30;;;1.80;99.90;;;;;;5074776;28;20207;-54
2021/04/27 04:29:30;;;;;;;4.43;2.77;;;1.80;99.90;;;;;;5075080;28;20220;-54
2021/04/27 04:31:57;;;;;;;4.13;2.90;;;1.80;99.90;;;;;;5075029;28;20288;-53
2021/04/27 04:34:24;;;;;;;3.53;2.97;;;1.80;99.90;;;;;;5074859;28;20204;-56
2021/04/27 04:36:51;;;;;;;5.17;3.63;;;1.80;99.90;;;;;;5074751;28;20273;-53
2021/04/27 04:39:18;;;;;;;6.03;3.60;;;1.80;99.90;;;;;;5074964;28;20254;-54
2021/04/27 04:41:45;;;;;;;4.63;3.33;;;1.90;99.90;;;;;;5074515;28;21103;-56
2021/04/27 04:44:12;;;;;;;3.87;3.47;;;2.00;99.90;;;;;;5070590;28;20232;-56
2021/04/27 04:46:39;;;;;;;4.17;3.20;;;2.00;99.90;;;;;;5054610;28;20208;-57
2021/04/27 04:49:06;;;;;;;4.10;3.27;;;2.10;99.90;;;;;;5053976;28;20631;-53
2021/04/27 04:51:33;;;;;;;5.73;3.33;;;2.20;99.90;;;;;;5053310;28;20215;-54
2021/04/27 04:54:00;;;;;;;6.33;3.87;;;2.20;99.90;;;;;;5054286;28;20300;-52
2021/04/27 04:56:27;;;;;;;5.73;3.60;;;2.30;99.90;;;;;;5054376;28;20211;-54
2021/04/27 04:58:59;;;;;;;4.17;3.30;;;2.50;99.90;;;;;;5054645;28;20213;-55
2021/04/27 05:01:26;;;;;;;6.20;3.70;;;2.60;99.90;;;;;;5054100;28;20205;-55
2021/04/27 05:03:52;;;;;;;7.23;3.73;;;2.80;99.90;;;;;;5054324;28;20208;-55
2021/04/27 05:06:20;;;;;;;5.47;3.27;;;2.90;99.90;;;;;;5054241;28;20204;-57
2021/04/27 05:08:49;;;;;;;8.07;3.30;;;3.10;99.90;;;;;;5053752;28;20641;-54
2021/04/27 05:11:18;;;;;;;5.60;3.43;;;3.40;99.90;;;;;;5054148;28;20203;-57
2021/04/27 05:13:45;;;;;;;5.73;3.50;;;3.70;99.90;;;;;;5053576;28;20783;-56
2021/04/27 05:16:13;;;;;;;5.73;3.53;;;3.90;99.90;;;;;;5054072;28;20272;-56
2021/04/27 05:18:40;;;;;;;4.80;3.30;;;4.10;99.90;;;;;;5053840;28;20275;-54
2021/04/27 05:21:08;;;;;;;4.33;3.37;;;4.20;99.90;;;;;;5053480;28;20308;-51
2021/04/27 05:23:35;;;;;;;5.43;3.30;;;4.30;99.90;;;;;;5053898;28;20216;-58
2021/04/27 05:26:02;;;;;;;5.67;3.30;;;4.50;99.90;;;;;;5053638;28;20213;-57
2021/04/27 05:28:30;;;;;;;5.13;3.20;;;4.60;99.90;;;;;;5053653;28;20230;-54
2021/04/27 05:30:57;;;;;;;3.93;3.27;;;4.60;99.90;;;;;;5053824;28;20654;-55
2021/04/27 05:33:24;;;;;;;6.20;3.40;;;4.80;99.90;;;;;;5053579;28;20202;-53
2021/04/27 05:35:51;;;;;;;5.47;3.53;;;4.90;99.90;;;;;;5053277;28;20210;-54
2021/04/27 05:38:17;;;;;;;6.93;3.67;;;5.00;99.90;;;;;;5053558;28;20201;-55
2021/04/27 05:40:44;;;;;;;5.23;3.60;;;5.10;99.90;;;;;;5053062;28;20213;-54
2021/04/27 05:43:11;;;;;;;5.53;3.97;;;5.20;99.90;;;;;;5053496;28;20306;-56
2021/04/27 05:45:39;;;;;;;6.47;3.50;;;5.30;99.90;;;;;;5053603;28;20252;-56
2021/04/27 05:48:06;;;;;;;4.50;3.20;;;5.50;99.90;;;;;;5053276;28;20212;-55
2021/04/27 05:50:33;;;;;;;8.23;3.40;;;5.60;99.90;;;;;;5053596;28;20220;-54
2021/04/27 05:53:00;;;;;;;7.83;3.53;;;5.70;99.90;;;;;;5054728;28;20301;-55
2021/04/27 05:55:27;;;;;;;4.57;3.50;;;5.80;99.90;;;;;;5059828;28;20199;-56
2021/04/27 05:57:55;;;;;;;5.37;3.37;;;6.00;99.90;;;;;;5058205;28;20206;-56
2021/04/27 06:00:23;;;;;;;5.07;3.13;;;6.10;99.90;;;;;;5056520;28;20214;-56
2021/04/27 06:02:51;;;;;;;7.50;3.57;;;6.20;99.90;;;;;;5053564;28;20203;-54
2021/04/27 06:05:19;;;;;;;8.40;3.43;;;6.30;99.90;;;;;;5053338;28;20204;-53
2021/04/27 06:07:45;;;;;;;4.87;3.30;;;6.40;99.90;;;;;;5053164;28;20199;-55
2021/04/27 06:10:13;;;;;;;6.20;3.40;;;6.40;99.90;;;;;;5052833;28;20231;-54
2021/04/27 06:12:39;;;;;;;7.10;3.53;;;6.50;99.90;;;;;;5053226;28;20214;-54
2021/04/27 06:15:07;;;;;;;5.67;4.10;;;6.50;99.90;;;;;;5052881;28;20231;-58
2021/04/27 06:17:35;;;;;;;5.47;3.20;;;6.60;99.90;;;;;;5053073;28;20287;-51
2021/04/27 06:20:05;;;;;;;5.87;3.40;;;6.60;99.90;;;;;;5052941;28;20200;-56
2021/04/27 06:22:32;;;;;;;4.63;2.83;;;6.70;99.90;;;;;;5052903;28;20624;-53
2021/04/27 06:25:00;;;;;;;4.33;2.97;;;6.80;99.90;;;;;;5052377;28;20680;-56
2021/04/27 06:27:29;;;;;;;7.30;3.10;;;6.70;99.90;;;;;;5052694;28;20211;-54
2021/04/27 06:29:58;;;;;;;5.73;3.20;;;6.80;99.90;;;;;;5052499;28;20223;-57
2021/04/27 06:32:24;;;;;;;4.90;3.37;;;6.80;99.90;;;;;;5052549;28;20212;-55
2021/04/27 06:34:51;;;;;;;6.07;2.93;;;6.80;99.90;;;;;;5052465;28;20295;-56
2021/04/27 06:37:19;;;;;;;4.60;3.40;;;6.80;99.90;;;;;;5056351;28;20210;-55
2021/04/27 06:39:46;;;;;;;6.03;3.47;;;6.80;99.90;;;;;;5049454;28;20231;-56
2021/04/27 06:42:13;;;;;;;5.43;3.10;;;6.80;99.90;;;;;;5049173;28;20210;-55
2021/04/27 06:44:40;;;;;;;4.37;3.10;;;6.90;99.90;;;;;;5057616;28;20292;-57
2021/04/27 06:47:08;;;;;;;5.20;3.10;;;7.00;99.90;;;;;;5068882;28;20204;-57
2021/04/27 06:49:36;;;;;;;4.17;3.33;;;7.10;99.90;;;;;;5069268;28;20227;-57
2021/04/27 06:52:04;;;;;;;5.83;3.20;;;7.20;99.90;;;;;;5069058;28;20683;-57
2021/04/27 06:54:32;;;;;;;5.30;3.47;;;7.20;99.90;;;;;;5069767;28;20208;-54
2021/04/27 06:57:00;;;;;;;5.80;2.67;;;7.10;99.90;;;;;;5069410;28;20210;-55
2021/04/27 06:59:39;;;;;;;6.70;2.87;;;7.10;99.90;;;;;;5069492;28;20187;-52
2021/04/27 07:02:07;;;;;;;6.20;2.90;;;7.10;99.90;;;;;;5069715;28;20668;-56
2021/04/27 07:04:40;;;;;;;4.97;3.10;;;7.10;99.90;;;;;;5069456;28;20188;-55
2021/04/27 07:07:08;;;;;;;3.87;2.90;;;7.20;99.90;;;;;;5069624;28;20259;-56
2021/04/27 07:09:36;;;;;;;6.60;2.63;;;7.30;99.90;;;;;;5069355;28;20224;-55
2021/04/27 07:12:04;;;;;;;3.77;2.90;;;7.30;99.90;;;;;;5069176;28;20208;-56
2021/04/27 07:14:31;;;;;;;3.60;2.80;;;7.30;99.90;;;;;;5069265;28;20241;-58
2021/04/27 07:16:58;;;;;;;3.83;2.93;;;7.30;99.90;;;;;;5069446;28;20211;-57
2021/04/27 07:19:26;;;;;;;4.60;3.00;;;7.30;99.90;;;;;;5069452;28;20552;-56
2021/04/27 07:21:53;;;;;;;4.30;2.77;;;7.40;99.90;;;;;;5069034;28;20210;-58
2021/04/27 07:24:21;;;;;;;3.63;2.60;;;7.50;99.90;;;;;;5069132;28;20265;-58
2021/04/27 07:26:49;;;;;;;6.83;2.50;;;7.50;99.90;;;;;;5068992;28;20203;-55
2021/04/27 07:29:16;;;;;;;4.77;2.40;;;7.60;99.90;;;;;;5069248;28;20220;-55
2021/04/27 07:31:45;;;;;;;3.90;2.50;;;7.60;99.90;;;;;;5068979;28;20663;-55
2021/04/27 07:34:12;;;;;;;4.30;2.50;;;7.70;99.90;;;;;;5068738;28;20241;-55
2021/04/27 07:36:39;;;;;;;3.57;2.40;;;7.80;99.90;;;;;;5069244;28;20204;-59
2021/04/27 07:39:08;;;;;;;4.37;2.63;;;7.80;99.90;;;;;;5069008;28;20211;-54
2021/04/27 07:41:35;;;;;;;6.17;2.50;;;7.90;99.90;;;;;;5069000;28;20208;-55
2021/04/27 07:44:04;;;;;;;3.67;2.20;;;8.00;99.90;;;;;;5065730;28;20277;-56
2021/04/27 07:46:32;;;;;;;3.17;2.30;;;8.10;99.90;;;;;;5049172;28;20261;-57
2021/04/27 07:48:59;;;;;;;3.23;1.90;;;8.10;99.90;;;;;;5048821;28;20252;-58
2021/04/27 07:51:27;;;;;;;3.37;2.00;;;8.00;99.90;;;;;;5048889;28;20210;-56
2021/04/27 07:53:53;;;;;;;5.43;2.13;;;8.00;99.90;;;;;;5048865;28;20200;-56
2021/04/27 07:56:21;;;;;;;3.43;2.00;;;8.00;99.90;;;;;;5048809;28;20279;-54
2021/04/27 07:58:48;;;;;;;2.50;2.00;;;8.10;99.90;;;;;;5051158;28;20193;-57
2021/04/27 08:01:16;;;;;;;3.33;2.13;;;8.20;99.90;;;;;;5052440;28;20212;-53
2021/04/27 08:03:43;;;;;;;3.37;1.93;;;8.30;99.90;;;;;;5052242;28;20299;-55
2021/04/27 08:06:10;;;;;;;2.80;2.00;;;8.30;99.90;;;;;;5052407;28;20201;-58
2021/04/27 08:08:37;;;;;;;3.00;1.87;;;8.40;99.90;;;;;;5052113;28;20204;-54
2021/04/27 08:11:04;;;;;;;2.80;1.97;;;8.30;99.90;;;;;;5051571;28;20208;-56
2021/04/27 08:13:31;;;;;;;3.03;2.30;;;8.30;99.90;;;;;;5050963;28;20288;-55
2021/04/27 08:15:58;;;;;;;2.10;1.77;;;8.40;99.90;;;;;;5051238;28;20225;-55
2021/04/27 08:18:26;;;;;;;2.43;1.83;;;8.40;99.80;;;;;;5051684;28;20205;-55
2021/04/27 08:20:53;;;;;;;3.27;2.00;;;8.50;99.50;;;;;;5051992;28;20203;-57
2021/04/27 08:23:21;;;;;;;2.57;1.87;;;8.40;99.80;;;;;;5051741;28;20685;-56
2021/04/27 08:25:57;;;;;;;2.77;1.80;;;8.50;99.80;;;;;;5051812;28;20286;-55
2021/04/27 08:28:25;;;;;;;2.30;1.83;;;8.70;98.40;;;;;;5051595;28;20236;-51
2021/04/27 08:30:52;;;;;;;3.23;1.70;;;8.70;98.30;;;;;;5051502;28;20693;-54
2021/04/27 08:33:19;;;;;;;5.10;1.87;;;8.70;98.40;;;;;;5051313;28;20201;-59
2021/04/27 08:35:47;;;;;;;3.47;2.00;;;8.80;98.30;;;;;;5051705;28;20204;-56
2021/04/27 08:38:14;;;;;;;5.03;2.20;;;8.80;98.50;;;;;;5051779;28;20205;-58
2021/04/27 08:40:42;;;;;;;7.60;2.17;;;8.90;98.90;;;;;;5051329;28;20225;-59
2021/04/27 08:43:09;;;;;;;3.60;2.10;;;9.00;98.50;;;;;;5050113;28;20276;-58
2021/04/27 08:45:39;;;;;;;5.43;1.97;;;9.10;98.10;;;;;;5067660;28;20204;-56
2021/04/27 08:48:08;;;;;;;3.33;1.80;;;9.10;97.30;;;;;;5071332;28;20227;-56
2021/04/27 08:50:35;;;;;;;3.70;2.20;;;9.20;97.50;;;;;;5071368;28;20227;-56
2021/04/27 08:53:04;;;;;;;2.87;1.63;;;9.20;96.40;;;;;;5071419;28;20231;-58
2021/04/27 08:55:31;;;;;;;3.00;2.23;;;9.30;96.10;;;;;;5071269;28;20201;-59
2021/04/27 08:57:58;;;;;;;2.67;1.97;;;9.30;96.30;;;;;;5071261;28;20225;-58
2021/04/27 09:00:26;;;;;;;3.60;1.90;;;9.30;96.50;;;;;;5070852;28;20215;-56
2021/04/27 09:02:55;;;;;;;2.60;2.10;;;9.30;96.20;;;;;;5071180;28;20661;-60
2021/04/27 09:05:24;;;;;;;3.40;1.90;;;9.30;96.60;;;;;;5071164;28;20232;-58
2021/04/27 09:07:52;;;;;;;2.03;1.83;;;9.30;95.20;;;;;;5070811;28;20298;-59
2021/04/27 09:10:23;;;;;;;4.07;1.80;;;9.30;94.70;;;;;;5070133;28;20282;-59
2021/04/27 09:12:51;;;;;;;2.17;1.87;;;9.40;94.70;;;;;;5070675;28;20273;-59
2021/04/27 09:15:27;;;;;;;3.20;1.80;;;9.40;95.00;;;;;;5070231;28;20716;-54
2021/04/27 09:17:54;;;;;;;3.40;2.10;;;9.40;95.00;;;;;;5070836;28;20234;-55
2021/04/27 09:20:21;;;;;;;2.97;2.10;;;9.40;95.00;;;;;;5070570;28;20648;-60
2021/04/27 09:22:48;;;;;;;4.80;2.20;;;9.50;94.20;;;;;;5071090;28;20259;-60
2021/04/27 09:25:21;;;;;;;2.80;2.00;;;9.50;94.60;;;;;;5070420;28;20205;-59
2021/04/27 09:27:49;;;;;;;5.90;2.27;;;9.50;94.10;;;;;;5070524;28;20192;-59
2021/04/27 09:30:20;;;;;;;2.63;1.80;;;9.50;94.20;;;;;;5070410;28;20254;-59
2021/04/27 09:32:54;;;;;;;3.53;1.70;;;9.60;94.10;;;;;;5070197;28;20211;-58
2021/04/27 09:35:31;;;;;;;2.93;2.07;;;9.70;93.30;;;;;;5070875;28;20184;-60
2021/04/27 09:38:16;;;;;;;3.63;1.83;;;9.80;91.80;;;;;;5070378;28;20189;-60
2021/04/27 09:40:48;;;;;;;2.80;1.90;;;9.80;92.10;;;;;;5070550;28;20547;-59
2021/04/27 09:43:17;;;;;;;2.87;1.70;;;9.90;92.50;;;;;;5070432;28;20283;-59
2021/04/27 09:45:46;;;;;;;3.67;2.10;;;9.90;92.50;;;;;;5053081;28;20205;-57
2021/04/27 09:48:13;;;;;;;3.47;1.70;;;9.80;92.20;;;;;;5050086;28;20303;-60
2021/04/27 09:50:41;;;;;;;2.80;1.90;;;9.90;91.90;;;;;;5050096;28;20217;-59
2021/04/27 09:53:08;;;;;;;3.20;2.07;;;9.90;91.70;;;;;;5050146;28;20296;-58
2021/04/27 09:55:35;;;;;;;2.17;1.80;;;10.00;91.20;;;;;;5050473;28;20609;-59
2021/04/27 09:58:04;;;;;;;2.60;1.90;;;10.00;91.60;;;;;;5049732;28;20590;-61
2021/04/27 10:00:34;;;;;;;4.83;2.00;;;10.10;91.10;;;;;;5049842;28;20257;-59
2021/04/27 10:03:04;;;;;;;3.60;1.80;;;10.20;91.00;;;;;;5052381;28;20203;-59
2021/04/27 10:05:31;;;;;;;3.40;1.90;;;10.10;91.50;;;;;;5053352;28;20247;-52
2021/04/27 10:07:59;;;;;;;4.03;2.30;;;10.10;91.70;;;;;;5053263;28;20227;-57
2021/04/27 10:10:29;;;;;;;3.10;2.13;;;10.20;91.50;;;;;;5049743;28;20278;-56
2021/04/27 10:12:58;;;;;;;4.13;2.00;;;10.20;91.60;;;;;;5050294;28;20200;-56
2021/04/27 10:15:26;;;;;;;5.30;2.40;;;10.20;91.70;;;;;;5049738;28;20264;-56
2021/04/27 10:17:55;;;;;;;3.03;2.20;;;10.30;91.10;;;;;;5049882;28;20305;-55
2021/04/27 10:20:23;;;;;;;3.63;2.40;;;10.40;90.90;;;;;;5049561;28;20197;-56
2021/04/27 10:22:50;;;;;;;3.00;2.03;;;10.40;91.20;;;;;;5050887;28;20917;-58
2021/04/27 10:25:21;;;;;;;6.57;3.20;;;10.50;91.40;;;;;;5049825;28;20205;-58
2021/04/27 10:27:54;;;;;;;3.77;2.73;;;10.50;91.60;;;;;;5049774;28;20281;-58
2021/04/27 10:30:33;;;;;;;5.07;2.97;;;10.70;90.80;;;;;;5049439;28;20663;-58
2021/04/27 10:33:24;;;;;;;2.80;2.10;;;10.70;90.20;;;;;;5049415;28;20288;-55
2021/04/27 10:36:04;;;;;;;5.57;2.67;;;10.90;90.00;;;;;;5049007;28;20302;-59
2021/04/27 10:38:47;;;;;;;110.50;27.33;;;10.90;90.60;;;;;;5049593;28;20193;-59
2021/04/27 10:41:16;;;;;;;6.60;3.30;;;11.00;92.10;;;;;;5049283;28;20185;-60
2021/04/27 10:43:52;;;;;;;4.97;2.17;;;11.10;90.80;;;;;;5049410;28;20209;-59
2021/04/27 10:46:48;;;;;;;3.93;1.57;;;11.10;90.20;;;;;;5069387;28;20186;-59
2021/04/27 10:49:36;;;;;;;2.50;1.80;;;11.00;88.90;;;;;;5023231;28;20254;-57
2021/04/27 10:52:06;;;;;;;3.60;2.10;;;11.00;88.80;;;;;;5069152;28;20309;-60
2021/04/27 10:54:36;;;;;;;3.17;1.80;;;11.10;89.40;;;;;;5069099;28;20291;-61
2021/04/27 10:57:23;;;;;;;4.10;1.80;;;11.20;87.30;;;;;;5069016;28;20201;-61
2021/04/27 10:59:58;;;;;;;2.47;2.03;;;11.10;87.00;;;;;;5069249;28;20653;-59
2021/04/27 11:02:28;;;;;;;2.33;2.03;;;11.10;88.00;;;;;;5068879;28;20184;-60
2021/04/27 11:04:58;;;;;;;2.70;1.90;;;11.20;86.50;;;;;;5069462;28;20534;-59
2021/04/27 11:07:39;;;;;;;2.43;1.90;;;11.30;86.40;;;;;;5069103;28;20259;-60
2021/04/27 11:10:31;;;;;;;3.23;2.00;;;11.40;86.90;;;;;;5069398;28;20213;-59
2021/04/27 11:13:12;;;;;;;3.17;2.10;;;11.60;87.50;;;;;;5050298;28;20201;-59
2021/04/27 11:15:41;;;;;;;3.13;2.00;;;12.00;85.40;;;;;;5048887;28;20777;-58
2021/04/27 11:18:11;;;;;;;3.40;2.03;;;12.10;84.90;;;;;;5048687;28;20296;-60
2021/04/27 11:20:55;;;;;;;2.57;2.10;;;12.20;83.50;;;;;;5049069;28;20202;-57
2021/04/27 11:23:37;;;;;;;4.13;2.03;;;12.00;84.00;;;;;;5049418;28;20185;-58
2021/04/27 11:26:40;;;;;;;2.57;2.17;;;11.80;84.00;;;;;;5048961;28;20216;-59
2021/04/27 11:29:12;;;;;;;5.00;2.30;;;11.70;85.10;;;;;;5048746;28;20565;-59
2021/04/27 11:32:11;;;;;;;3.00;2.20;;;11.70;85.00;;;;;;5049325;28;20273;-58
2021/04/27 11:35:11;;;;;;;2.20;2.00;;;11.70;84.50;;;;;;5052815;28;20196;-57
2021/04/27 11:37:41;;;;;;;3.90;2.20;;;11.70;84.70;;;;;;5052756;28;20235;-57
2021/04/27 11:40:22;;;;;;;4.40;2.37;;;11.60;85.80;;;;;;5052662;28;20277;-58
2021/04/27 11:42:54;;;;;;;2.87;2.50;;;11.70;85.60;;;;;;5052818;28;20221;-58
2021/04/27 11:45:22;;;;;;;4.10;2.33;;;11.80;85.30;;;;;;5066138;28;20264;-56
2021/04/27 11:47:49;;;;;;;2.87;2.20;;;11.90;85.50;;;;;;5072632;28;20283;-56
2021/04/27 11:50:19;;;;;;;2.60;2.00;;;12.10;85.10;;;;;;5072479;28;20286;-55
2021/04/27 11:52:53;;;;;;;6.63;2.30;;;12.10;85.60;;;;;;5072150;28;20239;-57
2021/04/27 11:55:33;;;;;;;2.67;2.30;;;12.20;85.50;;;;;;5072050;28;20220;-55
2021/04/27 11:58:02;;;;;;;2.97;2.10;;;12.40;84.40;;;;;;5072388;28;20224;-56
2021/04/27 12:00:39;;;;;;;2.90;2.20;;;12.10;83.90;;;;;;5072147;28;20192;-54
2021/04/27 12:03:27;;;;;;;2.83;2.43;;;12.10;83.80;;;;;;5072659;28;20180;-51
2021/04/27 12:05:57;;;;;;;4.13;2.20;;;12.10;84.30;;;;;;5072213;28;20676;-54
2021/04/27 12:08:28;;;;;;;3.80;2.13;;;12.10;84.00;;;;;;5072500;28;20209;-53
2021/04/27 12:11:23;;;;;;;2.93;2.07;;;12.20;83.80;;;;;;5072329;28;20327;-53
2021/04/27 12:13:52;;;;;;;2.60;2.40;;;12.40;84.00;;;;;;5025710;28;20306;-56
2021/04/27 12:16:21;;;;;;;3.43;2.30;;;12.40;84.20;;;;;;5071852;28;20651;-55
2021/04/27 12:19:00;;;;;;;3.30;1.97;;;12.50;83.80;;;;;;5072187;28;20208;-54
2021/04/27 12:21:43;;;;;;;3.30;2.30;;;12.50;84.40;;;;;;5072030;28;20212;-55
2021/04/27 12:24:20;;;;;;;3.03;2.60;;;12.30;83.50;;;;;;5072143;28;20268;-59
2021/04/27 12:26:51;;;;;;;5.40;2.53;;;12.20;83.40;;;;;;5072157;28;20219;-59
2021/04/27 12:29:29;;;;;;;2.40;2.13;;;12.20;84.00;;;;;;5071497;28;20679;-60
2021/04/27 12:31:57;;;;;;;3.03;2.50;;;12.30;84.70;;;;;;5072094;28;20184;-59
2021/04/27 12:34:24;;;;;;;2.77;2.33;;;12.40;83.60;;;;;;5071645;28;20208;-58
2021/04/27 12:36:51;;;;;;;5.53;2.80;;;12.50;82.50;;;;;;5071822;28;20197;-57
2021/04/27 12:39:34;;;;;;;2.73;2.43;;;12.60;83.00;;;;;;5071611;28;20561;-55
2021/04/27 12:42:04;;;;;;;3.73;2.50;;;12.60;83.40;;;;;;5071834;28;20736;-57
2021/04/27 12:44:37;;;;;;;3.07;2.57;;;12.60;83.20;;;;;;5070684;28;20304;-56
2021/04/27 12:47:17;;;;;;;4.60;2.60;;;12.60;82.70;;;;;;5071761;28;20188;-59
2021/04/27 12:49:55;;;;;;;3.70;2.63;;;12.70;82.30;;;;;;5071522;28;20215;-57
2021/04/27 12:52:22;;;;;;;3.97;2.57;;;12.90;82.00;;;;;;5070996;28;20192;-58
2021/04/27 12:54:57;;;;;;;3.17;2.60;;;13.10;82.00;;;;;;5071263;28;20204;-60
2021/04/27 12:57:25;;;;;;;3.13;2.40;;;13.20;82.00;;;;;;5071574;28;20181;-52
2021/04/27 12:59:57;;;;;;;3.37;2.47;;;13.10;81.00;;;;;;5070945;28;20292;-54
2021/04/27 13:02:26;;;;;;;4.53;2.60;;;12.80;82.00;;;;;;5071222;28;20223;-54
2021/04/27 13:04:54;;;;;;;4.27;2.50;;;12.80;82.90;;;;;;5071397;28;20291;-57
2021/04/27 13:07:27;;;;;;;4.00;2.80;;;12.80;83.20;;;;;;5071168;28;20200;-57